sensor_id;sensor_type;location;lat;lon;timestamp;temperature;humidity
65582;DHT22;52231;40.090;18.348;2022-09-20T00:01:59;17.70;80.80
65582;DHT22;52231;40.090;18.348;2022-09-20T00:04:28;17.70;81.10
65582;DHT22;52231;40.090;18.348;2022-09-20T00:06:56;17.60;81.40
65582;DHT22;52231;40.090;18.348;2022-09-20T00:09:24;17.60;81.50
65582;DHT22;52231;40.090;18.348;2022-09-20T00:11:52;17.60;81.40
65582;DHT22;52231;40.090;18.348;2022-09-20T00:14:21;17.60;81.20
65582;DHT22;52231;40.090;18.348;2022-09-20T00:16:49;17.60;81.00
65582;DHT22;52231;40.090;18.348;2022-09-20T00:19:20;17.50;81.10
65582;DHT22;52231;40.090;18.348;2022-09-20T00:21:48;17.40;81.20
65582;DHT22;52231;40.090;18.348;2022-09-20T00:24:16;17.50;81.20
65582;DHT22;52231;40.090;18.348;2022-09-20T00:26:44;17.40;81.20
65582;DHT22;52231;40.090;18.348;2022-09-20T00:29:12;17.40;81.30
65582;DHT22;52231;40.090;18.348;2022-09-20T00:31:41;17.40;81.70
65582;DHT22;52231;40.090;18.348;2022-09-20T00:34:10;17.40;81.70
65582;DHT22;52231;40.090;18.348;2022-09-20T00:36:56;17.40;81.60
65582;DHT22;52231;40.090;18.348;2022-09-20T00:39:25;17.40;81.50
65582;DHT22;52231;40.090;18.348;2022-09-20T00:41:53;17.30;81.30
65582;DHT22;52231;40.090;18.348;2022-09-20T00:44:55;17.30;81.20
65582;DHT22;52231;40.090;18.348;2022-09-20T00:53:16;17.30;81.30
65582;DHT22;52231;40.090;18.348;2022-09-20T00:55:50;17.30;81.30
65582;DHT22;52231;40.090;18.348;2022-09-20T00:58:22;17.20;81.30
65582;DHT22;52231;40.090;18.348;2022-09-20T01:00:53;17.20;81.20
65582;DHT22;52231;40.090;18.348;2022-09-20T01:03:25;17.10;81.00
65582;DHT22;52231;40.090;18.348;2022-09-20T01:05:55;17.10;81.90
65582;DHT22;52231;40.090;18.348;2022-09-20T01:08:23;17.10;82.30
65582;DHT22;52231;40.090;18.348;2022-09-20T01:10:52;17.10;82.30
65582;DHT22;52231;40.090;18.348;2022-09-20T01:13:20;17.00;82.80
65582;DHT22;52231;40.090;18.348;2022-09-20T01:15:49;17.00;83.40
65582;DHT22;52231;40.090;18.348;2022-09-20T01:18:19;17.10;83.60
65582;DHT22;52231;40.090;18.348;2022-09-20T01:20:49;17.10;83.70
65582;DHT22;52231;40.090;18.348;2022-09-20T01:33:05;17.00;83.80
65582;DHT22;52231;40.090;18.348;2022-09-20T01:35:35;17.10;83.80
65582;DHT22;52231;40.090;18.348;2022-09-20T01:38:10;17.00;83.70
65582;DHT22;52231;40.090;18.348;2022-09-20T01:40:48;17.00;83.90
65582;DHT22;52231;40.090;18.348;2022-09-20T02:01:36;16.90;84.00
65582;DHT22;52231;40.090;18.348;2022-09-20T02:09:37;16.80;83.60
65582;DHT22;52231;40.090;18.348;2022-09-20T02:17:33;16.70;84.00
65582;DHT22;52231;40.090;18.348;2022-09-20T02:20:31;16.60;84.10
65582;DHT22;52231;40.090;18.348;2022-09-20T02:26:02;16.60;84.20
65582;DHT22;52231;40.090;18.348;2022-09-20T02:29:21;16.60;84.20
65582;DHT22;52231;40.090;18.348;2022-09-20T02:32:28;16.60;84.30
65582;DHT22;52231;40.090;18.348;2022-09-20T02:35:00;16.70;84.70
65582;DHT22;52231;40.090;18.348;2022-09-20T02:51:43;16.90;85.40
65582;DHT22;52231;40.090;18.348;2022-09-20T02:54:41;16.90;85.60
65582;DHT22;52231;40.090;18.348;2022-09-20T02:57:42;16.90;85.50
65582;DHT22;52231;40.090;18.348;2022-09-20T03:00:39;17.00;85.40
65582;DHT22;52231;40.090;18.348;2022-09-20T03:03:25;17.00;85.30
65582;DHT22;52231;40.090;18.348;2022-09-20T03:08:57;17.00;85.00
65582;DHT22;52231;40.090;18.348;2022-09-20T03:11:50;17.00;85.00
65582;DHT22;52231;40.090;18.348;2022-09-20T03:14:33;17.00;84.90
65582;DHT22;52231;40.090;18.348;2022-09-20T03:20:54;17.00;84.70
65582;DHT22;52231;40.090;18.348;2022-09-20T03:29:08;17.00;84.90
65582;DHT22;52231;40.090;18.348;2022-09-20T03:42:48;16.80;85.20
65582;DHT22;52231;40.090;18.348;2022-09-20T03:52:00;16.70;84.80
65582;DHT22;52231;40.090;18.348;2022-09-20T03:54:58;16.70;84.70
65582;DHT22;52231;40.090;18.348;2022-09-20T04:03:35;16.50;84.30
65582;DHT22;52231;40.090;18.348;2022-09-20T04:06:32;16.40;84.30
65582;DHT22;52231;40.090;18.348;2022-09-20T04:09:24;16.30;84.40
65582;DHT22;52231;40.090;18.348;2022-09-20T04:14:56;16.30;84.30
65582;DHT22;52231;40.090;18.348;2022-09-20T04:17:41;16.20;84.40
65582;DHT22;52231;40.090;18.348;2022-09-20T04:20:20;16.20;84.90
65582;DHT22;52231;40.090;18.348;2022-09-20T04:22:53;16.10;84.70
65582;DHT22;52231;40.090;18.348;2022-09-20T04:25:28;16.10;84.70
65582;DHT22;52231;40.090;18.348;2022-09-20T04:27:59;16.10;84.70
65582;DHT22;52231;40.090;18.348;2022-09-20T04:30:30;16.00;84.70
65582;DHT22;52231;40.090;18.348;2022-09-20T04:33:14;16.00;84.80
65582;DHT22;52231;40.090;18.348;2022-09-20T04:36:19;16.00;84.80
65582;DHT22;52231;40.090;18.348;2022-09-20T04:57:21;16.00;85.60
65582;DHT22;52231;40.090;18.348;2022-09-20T05:00:09;16.10;85.70
65582;DHT22;52231;40.090;18.348;2022-09-20T05:14:27;17.00;84.90
65582;DHT22;52231;40.090;18.348;2022-09-20T05:25:41;18.30;82.20
65582;DHT22;52231;40.090;18.348;2022-09-20T05:31:11;18.70;79.70
65582;DHT22;52231;40.090;18.348;2022-09-20T05:39:37;19.60;77.50
65582;DHT22;52231;40.090;18.348;2022-09-20T05:58:59;21.40;71.30
65582;DHT22;52231;40.090;18.348;2022-09-20T06:01:45;21.70;70.40
65582;DHT22;52231;40.090;18.348;2022-09-20T06:24:01;23.50;65.50
65582;DHT22;52231;40.090;18.348;2022-09-20T06:26:34;23.60;65.20
65582;DHT22;52231;40.090;18.348;2022-09-20T06:29:05;23.80;64.80
65582;DHT22;52231;40.090;18.348;2022-09-20T06:31:37;24.00;64.50
65582;DHT22;52231;40.090;18.348;2022-09-20T06:34:11;24.30;63.80
65582;DHT22;52231;40.090;18.348;2022-09-20T06:36:46;24.60;63.50
65582;DHT22;52231;40.090;18.348;2022-09-20T06:39:53;24.80;62.30
65582;DHT22;52231;40.090;18.348;2022-09-20T06:42:42;25.10;62.20
65582;DHT22;52231;40.090;18.348;2022-09-20T06:45:11;25.30;61.90
65582;DHT22;52231;40.090;18.348;2022-09-20T06:47:39;25.50;61.70
65582;DHT22;52231;40.090;18.348;2022-09-20T06:50:14;25.80;61.00
65582;DHT22;52231;40.090;18.348;2022-09-20T06:52:43;25.80;60.40
65582;DHT22;52231;40.090;18.348;2022-09-20T06:55:20;25.80;60.70
65582;DHT22;52231;40.090;18.348;2022-09-20T06:57:51;26.00;60.60
65582;DHT22;52231;40.090;18.348;2022-09-20T07:00:19;26.10;60.10
65582;DHT22;52231;40.090;18.348;2022-09-20T07:02:47;26.10;60.20
65582;DHT22;52231;40.090;18.348;2022-09-20T07:05:16;26.10;59.90
65582;DHT22;52231;40.090;18.348;2022-09-20T07:07:46;26.20;59.30
65582;DHT22;52231;40.090;18.348;2022-09-20T07:10:14;26.00;59.90
65582;DHT22;52231;40.090;18.348;2022-09-20T07:12:43;26.10;60.10
65582;DHT22;52231;40.090;18.348;2022-09-20T07:15:11;26.20;59.60
65582;DHT22;52231;40.090;18.348;2022-09-20T07:17:43;26.40;59.20
65582;DHT22;52231;40.090;18.348;2022-09-20T07:20:11;26.70;57.80
65582;DHT22;52231;40.090;18.348;2022-09-20T07:22:40;26.80;56.70
65582;DHT22;52231;40.090;18.348;2022-09-20T07:25:08;26.90;57.10
65582;DHT22;52231;40.090;18.348;2022-09-20T07:27:37;27.20;56.30
65582;DHT22;52231;40.090;18.348;2022-09-20T07:30:07;27.50;54.50
65582;DHT22;52231;40.090;18.348;2022-09-20T07:32:35;27.30;52.60
65582;DHT22;52231;40.090;18.348;2022-09-20T07:35:04;26.90;54.00
65582;DHT22;52231;40.090;18.348;2022-09-20T07:37:32;27.00;54.00
65582;DHT22;52231;40.090;18.348;2022-09-20T07:40:04;27.30;53.30
65582;DHT22;52231;40.090;18.348;2022-09-20T07:42:32;27.70;52.10
65582;DHT22;52231;40.090;18.348;2022-09-20T07:45:00;27.70;50.90
65582;DHT22;52231;40.090;18.348;2022-09-20T07:47:30;27.50;48.90
65582;DHT22;52231;40.090;18.348;2022-09-20T07:50:02;27.50;49.60
65582;DHT22;52231;40.090;18.348;2022-09-20T07:52:30;27.80;49.60
65582;DHT22;52231;40.090;18.348;2022-09-20T07:54:58;28.00;48.00
65582;DHT22;52231;40.090;18.348;2022-09-20T07:57:26;27.90;48.40
65582;DHT22;52231;40.090;18.348;2022-09-20T07:59:54;27.70;50.00
65582;DHT22;52231;40.090;18.348;2022-09-20T08:02:22;27.70;49.30
65582;DHT22;52231;40.090;18.348;2022-09-20T08:04:50;27.70;48.30
65582;DHT22;52231;40.090;18.348;2022-09-20T08:07:18;27.80;47.20
65582;DHT22;52231;40.090;18.348;2022-09-20T08:09:46;28.10;46.30
65582;DHT22;52231;40.090;18.348;2022-09-20T08:12:15;28.20;45.00
65582;DHT22;52231;40.090;18.348;2022-09-20T08:15:06;28.10;43.90
65582;DHT22;52231;40.090;18.348;2022-09-20T08:17:37;28.10;46.30
65582;DHT22;52231;40.090;18.348;2022-09-20T08:20:07;27.90;45.30
65582;DHT22;52231;40.090;18.348;2022-09-20T08:22:36;27.70;45.70
65582;DHT22;52231;40.090;18.348;2022-09-20T08:25:07;27.90;45.40
65582;DHT22;52231;40.090;18.348;2022-09-20T08:27:35;28.20;45.10
65582;DHT22;52231;40.090;18.348;2022-09-20T08:30:04;28.30;44.90
65582;DHT22;52231;40.090;18.348;2022-09-20T08:32:33;28.30;44.80
65582;DHT22;52231;40.090;18.348;2022-09-20T08:35:01;28.60;44.60
65582;DHT22;52231;40.090;18.348;2022-09-20T08:37:29;28.70;43.60
65582;DHT22;52231;40.090;18.348;2022-09-20T08:39:57;28.40;44.00
65582;DHT22;52231;40.090;18.348;2022-09-20T08:42:35;28.40;43.40
65582;DHT22;52231;40.090;18.348;2022-09-20T08:45:18;28.50;44.00
65582;DHT22;52231;40.090;18.348;2022-09-20T08:47:54;28.40;44.30
65582;DHT22;52231;40.090;18.348;2022-09-20T08:50:25;28.20;45.30
65582;DHT22;52231;40.090;18.348;2022-09-20T08:52:56;28.30;45.00
65582;DHT22;52231;40.090;18.348;2022-09-20T08:55:28;28.30;43.90
65582;DHT22;52231;40.090;18.348;2022-09-20T08:58:10;28.20;43.00
65582;DHT22;52231;40.090;18.348;2022-09-20T09:00:43;27.80;42.70
65582;DHT22;52231;40.090;18.348;2022-09-20T09:03:14;27.60;44.60
65582;DHT22;52231;40.090;18.348;2022-09-20T09:08:27;27.90;41.40
65582;DHT22;52231;40.090;18.348;2022-09-20T09:10:58;28.30;40.30
65582;DHT22;52231;40.090;18.348;2022-09-20T09:14:03;28.50;38.80
65582;DHT22;52231;40.090;18.348;2022-09-20T09:16:52;28.40;41.30
65582;DHT22;52231;40.090;18.348;2022-09-20T09:19:30;28.60;41.90
65582;DHT22;52231;40.090;18.348;2022-09-20T09:22:03;28.60;41.60
65582;DHT22;52231;40.090;18.348;2022-09-20T09:24:32;28.50;41.50
65582;DHT22;52231;40.090;18.348;2022-09-20T09:27:17;28.40;40.70
65582;DHT22;52231;40.090;18.348;2022-09-20T09:29:54;28.40;40.40
65582;DHT22;52231;40.090;18.348;2022-09-20T09:34:54;28.80;39.70
65582;DHT22;52231;40.090;18.348;2022-09-20T09:37:25;29.20;39.50
65582;DHT22;52231;40.090;18.348;2022-09-20T09:42:34;29.40;38.30
65582;DHT22;52231;40.090;18.348;2022-09-20T09:45:22;29.30;38.30
65582;DHT22;52231;40.090;18.348;2022-09-20T09:47:54;29.40;37.80
65582;DHT22;52231;40.090;18.348;2022-09-20T09:50:29;29.20;38.40
65582;DHT22;52231;40.090;18.348;2022-09-20T09:53:13;29.20;38.50
65582;DHT22;52231;40.090;18.348;2022-09-20T10:02:40;29.60;39.60
65582;DHT22;52231;40.090;18.348;2022-09-20T10:05:23;29.40;37.90
65582;DHT22;52231;40.090;18.348;2022-09-20T10:13:41;29.60;34.90
65582;DHT22;52231;40.090;18.348;2022-09-20T10:23:17;30.70;33.60
65582;DHT22;52231;40.090;18.348;2022-09-20T10:37:35;30.30;35.30
65582;DHT22;52231;40.090;18.348;2022-09-20T10:40:31;30.30;36.20
65582;DHT22;52231;40.090;18.348;2022-09-20T10:43:51;30.10;34.30
65582;DHT22;52231;40.090;18.348;2022-09-20T10:49:17;29.90;34.70
65582;DHT22;52231;40.090;18.348;2022-09-20T10:52:25;29.50;35.90
65582;DHT22;52231;40.090;18.348;2022-09-20T11:06:38;29.80;35.10
65582;DHT22;52231;40.090;18.348;2022-09-20T11:09:11;29.50;35.90
65582;DHT22;52231;40.090;18.348;2022-09-20T11:12:28;29.70;36.70
65582;DHT22;52231;40.090;18.348;2022-09-20T11:15:04;29.80;36.10
65582;DHT22;52231;40.090;18.348;2022-09-20T11:18:21;29.70;36.20
65582;DHT22;52231;40.090;18.348;2022-09-20T11:26:50;29.40;35.90
65582;DHT22;52231;40.090;18.348;2022-09-20T11:32:07;29.60;37.30
65582;DHT22;52231;40.090;18.348;2022-09-20T11:35:16;29.90;36.20
65582;DHT22;52231;40.090;18.348;2022-09-20T11:38:12;29.40;36.40
65582;DHT22;52231;40.090;18.348;2022-09-20T11:41:46;29.30;37.00
65582;DHT22;52231;40.090;18.348;2022-09-20T11:44:10;29.50;36.20
65582;DHT22;52231;40.090;18.348;2022-09-20T11:49:24;29.60;35.80
65582;DHT22;52231;40.090;18.348;2022-09-20T11:52:18;29.50;35.80
65582;DHT22;52231;40.090;18.348;2022-09-20T11:57:31;28.10;36.90
65582;DHT22;52231;40.090;18.348;2022-09-20T12:00:02;27.70;38.20
65582;DHT22;52231;40.090;18.348;2022-09-20T12:05:35;27.90;38.70
65582;DHT22;52231;40.090;18.348;2022-09-20T12:08:07;28.30;38.50
65582;DHT22;52231;40.090;18.348;2022-09-20T12:11:06;28.50;38.00
65582;DHT22;52231;40.090;18.348;2022-09-20T12:13:38;28.00;38.40
65582;DHT22;52231;40.090;18.348;2022-09-20T12:16:16;27.80;39.30
65582;DHT22;52231;40.090;18.348;2022-09-20T12:21:17;27.10;39.90
65582;DHT22;52231;40.090;18.348;2022-09-20T12:24:00;26.80;40.40
65582;DHT22;52231;40.090;18.348;2022-09-20T12:26:37;26.30;41.80
65582;DHT22;52231;40.090;18.348;2022-09-20T12:32:00;25.70;42.50
65582;DHT22;52231;40.090;18.348;2022-09-20T12:34:34;25.50;42.60
65582;DHT22;52231;40.090;18.348;2022-09-20T12:39:36;25.80;43.10
65582;DHT22;52231;40.090;18.348;2022-09-20T12:42:28;25.90;43.00
65582;DHT22;52231;40.090;18.348;2022-09-20T12:45:04;26.00;42.50
65582;DHT22;52231;40.090;18.348;2022-09-20T12:47:37;26.00;42.60
65582;DHT22;52231;40.090;18.348;2022-09-20T12:50:13;26.20;42.70
65582;DHT22;52231;40.090;18.348;2022-09-20T12:53:02;26.50;42.50
65582;DHT22;52231;40.090;18.348;2022-09-20T13:01:25;26.60;41.10
65582;DHT22;52231;40.090;18.348;2022-09-20T13:03:47;26.70;41.70
65582;DHT22;52231;40.090;18.348;2022-09-20T13:11:43;27.10;40.40
65582;DHT22;52231;40.090;18.348;2022-09-20T13:17:21;27.20;40.30
65582;DHT22;52231;40.090;18.348;2022-09-20T13:19:53;27.30;41.10
65582;DHT22;52231;40.090;18.348;2022-09-20T13:24:58;27.40;39.60
65582;DHT22;52231;40.090;18.348;2022-09-20T13:32:46;26.80;42.30
65582;DHT22;52231;40.090;18.348;2022-09-20T13:40:35;26.10;46.10
65582;DHT22;52231;40.090;18.348;2022-09-20T13:43:26;25.90;46.50
65582;DHT22;52231;40.090;18.348;2022-09-20T13:46:08;25.90;46.00
65582;DHT22;52231;40.090;18.348;2022-09-20T13:48:37;25.90;45.50
65582;DHT22;52231;40.090;18.348;2022-09-20T13:51:16;25.90;46.70
65582;DHT22;52231;40.090;18.348;2022-09-20T13:53:45;25.90;45.40
65582;DHT22;52231;40.090;18.348;2022-09-20T13:58:48;26.00;45.90
65582;DHT22;52231;40.090;18.348;2022-09-20T14:01:22;26.20;44.80
65582;DHT22;52231;40.090;18.348;2022-09-20T14:03:52;26.60;44.60
65582;DHT22;52231;40.090;18.348;2022-09-20T14:06:26;27.10;43.10
65582;DHT22;52231;40.090;18.348;2022-09-20T14:08:58;27.30;42.00
65582;DHT22;52231;40.090;18.348;2022-09-20T14:11:31;27.20;42.40
65582;DHT22;52231;40.090;18.348;2022-09-20T14:14:01;26.90;42.70
65582;DHT22;52231;40.090;18.348;2022-09-20T14:16:48;26.80;44.00
65582;DHT22;52231;40.090;18.348;2022-09-20T14:19:20;26.70;44.30
65582;DHT22;52231;40.090;18.348;2022-09-20T14:21:50;26.60;45.10
65582;DHT22;52231;40.090;18.348;2022-09-20T14:24:38;26.30;44.60
65582;DHT22;52231;40.090;18.348;2022-09-20T14:27:20;26.10;45.50
65582;DHT22;52231;40.090;18.348;2022-09-20T14:29:52;25.90;45.10
65582;DHT22;52231;40.090;18.348;2022-09-20T14:32:51;25.70;45.70
65582;DHT22;52231;40.090;18.348;2022-09-20T14:35:21;25.60;46.10
65582;DHT22;52231;40.090;18.348;2022-09-20T14:37:52;25.50;44.00
65582;DHT22;52231;40.090;18.348;2022-09-20T14:40:24;25.30;45.40
65582;DHT22;52231;40.090;18.348;2022-09-20T14:42:59;25.40;45.70
65582;DHT22;52231;40.090;18.348;2022-09-20T14:45:31;25.30;45.80
65582;DHT22;52231;40.090;18.348;2022-09-20T14:56:47;25.10;45.90
65582;DHT22;52231;40.090;18.348;2022-09-20T14:59:26;25.20;46.50
65582;DHT22;52231;40.090;18.348;2022-09-20T15:04:36;24.80;48.30
65582;DHT22;52231;40.090;18.348;2022-09-20T15:07:09;24.60;48.80
65582;DHT22;52231;40.090;18.348;2022-09-20T15:09:38;24.50;49.20
65582;DHT22;52231;40.090;18.348;2022-09-20T15:12:18;24.60;48.30
65582;DHT22;52231;40.090;18.348;2022-09-20T15:14:47;24.50;48.20
65582;DHT22;52231;40.090;18.348;2022-09-20T15:17:18;24.40;48.80
65582;DHT22;52231;40.090;18.348;2022-09-20T15:19:47;24.40;49.40
65582;DHT22;52231;40.090;18.348;2022-09-20T15:22:16;24.30;49.40
65582;DHT22;52231;40.090;18.348;2022-09-20T15:24:44;24.10;49.60
65582;DHT22;52231;40.090;18.348;2022-09-20T15:27:13;24.00;49.50
65582;DHT22;52231;40.090;18.348;2022-09-20T15:29:44;23.90;50.40
65582;DHT22;52231;40.090;18.348;2022-09-20T15:32:12;23.80;50.50
65582;DHT22;52231;40.090;18.348;2022-09-20T15:34:42;23.70;50.40
65582;DHT22;52231;40.090;18.348;2022-09-20T15:37:11;23.60;50.50
65582;DHT22;52231;40.090;18.348;2022-09-20T15:39:40;23.50;50.10
65582;DHT22;52231;40.090;18.348;2022-09-20T15:42:09;23.50;50.90
65582;DHT22;52231;40.090;18.348;2022-09-20T15:44:38;23.40;51.10
65582;DHT22;52231;40.090;18.348;2022-09-20T15:47:06;23.40;51.00
65582;DHT22;52231;40.090;18.348;2022-09-20T15:49:34;23.20;51.20
65582;DHT22;52231;40.090;18.348;2022-09-20T15:52:02;23.20;52.10
65582;DHT22;52231;40.090;18.348;2022-09-20T15:54:30;23.10;52.10
65582;DHT22;52231;40.090;18.348;2022-09-20T15:56:59;23.00;51.60
65582;DHT22;52231;40.090;18.348;2022-09-20T15:59:27;22.90;51.90
65582;DHT22;52231;40.090;18.348;2022-09-20T16:01:56;22.90;52.40
65582;DHT22;52231;40.090;18.348;2022-09-20T16:04:24;22.80;52.60
65582;DHT22;52231;40.090;18.348;2022-09-20T16:06:54;22.80;52.80
65582;DHT22;52231;40.090;18.348;2022-09-20T16:09:22;22.70;52.70
65582;DHT22;52231;40.090;18.348;2022-09-20T16:11:50;22.80;52.80
65582;DHT22;52231;40.090;18.348;2022-09-20T16:14:25;22.80;52.80
65582;DHT22;52231;40.090;18.348;2022-09-20T16:16:54;22.60;52.10
65582;DHT22;52231;40.090;18.348;2022-09-20T16:19:23;22.50;52.40
65582;DHT22;52231;40.090;18.348;2022-09-20T16:21:55;22.40;52.90
65582;DHT22;52231;40.090;18.348;2022-09-20T16:24:27;22.40;53.20
65582;DHT22;52231;40.090;18.348;2022-09-20T16:26:56;22.30;53.60
65582;DHT22;52231;40.090;18.348;2022-09-20T16:29:24;22.10;53.80
65582;DHT22;52231;40.090;18.348;2022-09-20T16:31:53;22.00;54.20
65582;DHT22;52231;40.090;18.348;2022-09-20T16:34:26;21.80;54.70
65582;DHT22;52231;40.090;18.348;2022-09-20T16:37:00;21.70;55.40
65582;DHT22;52231;40.090;18.348;2022-09-20T16:39:29;21.50;55.80
65582;DHT22;52231;40.090;18.348;2022-09-20T16:42:00;21.40;56.20
65582;DHT22;52231;40.090;18.348;2022-09-20T16:44:35;21.40;56.60
65582;DHT22;52231;40.090;18.348;2022-09-20T16:47:06;21.30;56.80
65582;DHT22;52231;40.090;18.348;2022-09-20T16:49:53;21.20;56.90
65582;DHT22;52231;40.090;18.348;2022-09-20T16:52:23;21.20;57.20
65582;DHT22;52231;40.090;18.348;2022-09-20T16:54:53;21.10;57.40
65582;DHT22;52231;40.090;18.348;2022-09-20T16:57:22;21.10;57.60
65582;DHT22;52231;40.090;18.348;2022-09-20T16:59:51;21.00;57.80
65582;DHT22;52231;40.090;18.348;2022-09-20T17:02:22;20.90;58.20
65582;DHT22;52231;40.090;18.348;2022-09-20T17:04:51;20.80;58.50
65582;DHT22;52231;40.090;18.348;2022-09-20T17:07:19;20.70;58.80
65582;DHT22;52231;40.090;18.348;2022-09-20T17:09:50;20.60;59.10
65582;DHT22;52231;40.090;18.348;2022-09-20T17:12:19;20.50;59.30
65582;DHT22;52231;40.090;18.348;2022-09-20T17:14:50;20.50;59.50
65582;DHT22;52231;40.090;18.348;2022-09-20T17:17:18;20.40;59.80
65582;DHT22;52231;40.090;18.348;2022-09-20T17:19:48;20.30;59.90
65582;DHT22;52231;40.090;18.348;2022-09-20T17:22:17;20.30;60.30
65582;DHT22;52231;40.090;18.348;2022-09-20T17:24:45;20.30;60.50
65582;DHT22;52231;40.090;18.348;2022-09-20T17:27:14;20.30;60.60
65582;DHT22;52231;40.090;18.348;2022-09-20T17:29:43;20.20;60.60
65582;DHT22;52231;40.090;18.348;2022-09-20T17:32:12;20.10;60.70
65582;DHT22;52231;40.090;18.348;2022-09-20T17:34:41;20.00;61.10
65582;DHT22;52231;40.090;18.348;2022-09-20T17:37:09;20.00;61.30
65582;DHT22;52231;40.090;18.348;2022-09-20T17:39:39;19.90;61.40
65582;DHT22;52231;40.090;18.348;2022-09-20T17:42:07;19.90;61.60
65582;DHT22;52231;40.090;18.348;2022-09-20T17:44:36;19.80;61.80
65582;DHT22;52231;40.090;18.348;2022-09-20T17:47:05;19.80;61.80
65582;DHT22;52231;40.090;18.348;2022-09-20T17:49:33;19.70;62.00
65582;DHT22;52231;40.090;18.348;2022-09-20T17:52:04;19.60;62.20
65582;DHT22;52231;40.090;18.348;2022-09-20T17:54:35;19.60;62.40
65582;DHT22;52231;40.090;18.348;2022-09-20T17:57:03;19.50;62.70
65582;DHT22;52231;40.090;18.348;2022-09-20T17:59:32;19.50;62.90
65582;DHT22;52231;40.090;18.348;2022-09-20T18:02:01;19.40;63.10
65582;DHT22;52231;40.090;18.348;2022-09-20T18:04:31;19.40;63.20
65582;DHT22;52231;40.090;18.348;2022-09-20T18:07:01;19.30;63.40
65582;DHT22;52231;40.090;18.348;2022-09-20T18:09:31;19.30;63.50
65582;DHT22;52231;40.090;18.348;2022-09-20T18:12:02;19.30;63.70
65582;DHT22;52231;40.090;18.348;2022-09-20T18:14:34;19.30;63.60
65582;DHT22;52231;40.090;18.348;2022-09-20T18:17:03;19.20;63.80
65582;DHT22;52231;40.090;18.348;2022-09-20T18:19:32;19.20;63.90
65582;DHT22;52231;40.090;18.348;2022-09-20T18:22:02;19.10;64.10
65582;DHT22;52231;40.090;18.348;2022-09-20T18:24:31;19.20;64.20
65582;DHT22;52231;40.090;18.348;2022-09-20T18:27:00;19.10;64.30
65582;DHT22;52231;40.090;18.348;2022-09-20T18:29:31;19.10;64.50
65582;DHT22;52231;40.090;18.348;2022-09-20T18:32:04;19.00;64.60
65582;DHT22;52231;40.090;18.348;2022-09-20T18:34:35;19.00;64.90
65582;DHT22;52231;40.090;18.348;2022-09-20T18:37:03;19.00;65.10
65582;DHT22;52231;40.090;18.348;2022-09-20T18:39:35;18.90;65.20
65582;DHT22;52231;40.090;18.348;2022-09-20T18:42:04;18.90;65.40
65582;DHT22;52231;40.090;18.348;2022-09-20T18:44:36;18.80;65.60
65582;DHT22;52231;40.090;18.348;2022-09-20T18:47:05;18.80;65.70
65582;DHT22;52231;40.090;18.348;2022-09-20T18:49:34;18.80;66.00
65582;DHT22;52231;40.090;18.348;2022-09-20T18:52:03;18.70;66.20
65582;DHT22;52231;40.090;18.348;2022-09-20T18:54:31;18.70;66.20
65582;DHT22;52231;40.090;18.348;2022-09-20T18:57:01;18.70;66.30
65582;DHT22;52231;40.090;18.348;2022-09-20T18:59:31;18.60;66.30
65582;DHT22;52231;40.090;18.348;2022-09-20T19:02:16;18.60;66.40
65582;DHT22;52231;40.090;18.348;2022-09-20T19:05:03;18.50;66.40
65582;DHT22;52231;40.090;18.348;2022-09-20T19:07:41;18.50;66.60
65582;DHT22;52231;40.090;18.348;2022-09-20T19:10:41;18.40;66.70
65582;DHT22;52231;40.090;18.348;2022-09-20T19:21:35;18.30;66.90
65582;DHT22;52231;40.090;18.348;2022-09-20T19:26:49;18.20;67.10
65582;DHT22;52231;40.090;18.348;2022-09-20T19:29:26;18.20;67.40
65582;DHT22;52231;40.090;18.348;2022-09-20T19:31:57;18.10;67.50
65582;DHT22;52231;40.090;18.348;2022-09-20T19:34:30;18.10;67.70
65582;DHT22;52231;40.090;18.348;2022-09-20T19:37:24;18.00;67.70
65582;DHT22;52231;40.090;18.348;2022-09-20T19:40:19;18.10;67.80
65582;DHT22;52231;40.090;18.348;2022-09-20T19:43:52;18.00;67.90
65582;DHT22;52231;40.090;18.348;2022-09-20T19:49:15;17.90;68.10
65582;DHT22;52231;40.090;18.348;2022-09-20T19:51:46;17.90;68.10
65582;DHT22;52231;40.090;18.348;2022-09-20T19:54:15;17.80;68.20
65582;DHT22;52231;40.090;18.348;2022-09-20T19:56:54;17.80;68.30
65582;DHT22;52231;40.090;18.348;2022-09-20T19:59:25;17.80;68.40
65582;DHT22;52231;40.090;18.348;2022-09-20T20:01:54;17.80;68.50
65582;DHT22;52231;40.090;18.348;2022-09-20T20:04:24;17.70;68.50
65582;DHT22;52231;40.090;18.348;2022-09-20T20:12:29;17.70;68.70
65582;DHT22;52231;40.090;18.348;2022-09-20T20:15:43;17.60;68.70
65582;DHT22;52231;40.090;18.348;2022-09-20T20:21:55;17.60;68.90
65582;DHT22;52231;40.090;18.348;2022-09-20T20:27:14;17.50;69.10
65582;DHT22;52231;40.090;18.348;2022-09-20T20:29:42;17.50;69.20
65582;DHT22;52231;40.090;18.348;2022-09-20T20:32:11;17.50;69.30
65582;DHT22;52231;40.090;18.348;2022-09-20T20:34:39;17.40;69.60
65582;DHT22;52231;40.090;18.348;2022-09-20T20:37:07;17.30;69.70
65582;DHT22;52231;40.090;18.348;2022-09-20T20:39:36;17.40;69.80
65582;DHT22;52231;40.090;18.348;2022-09-20T20:42:05;17.40;70.00
65582;DHT22;52231;40.090;18.348;2022-09-20T20:44:34;17.30;70.10
65582;DHT22;52231;40.090;18.348;2022-09-20T20:47:04;17.30;70.10
65582;DHT22;52231;40.090;18.348;2022-09-20T20:49:52;17.30;70.30
65582;DHT22;52231;40.090;18.348;2022-09-20T20:52:22;17.30;70.40
65582;DHT22;52231;40.090;18.348;2022-09-20T20:54:50;17.20;70.60
65582;DHT22;52231;40.090;18.348;2022-09-20T20:57:19;17.10;70.80
65582;DHT22;52231;40.090;18.348;2022-09-20T20:59:47;17.10;70.90
65582;DHT22;52231;40.090;18.348;2022-09-20T21:02:16;17.10;71.10
65582;DHT22;52231;40.090;18.348;2022-09-20T21:04:44;17.00;71.20
65582;DHT22;52231;40.090;18.348;2022-09-20T21:07:13;17.00;71.30
65582;DHT22;52231;40.090;18.348;2022-09-20T21:09:43;16.90;71.60
65582;DHT22;52231;40.090;18.348;2022-09-20T21:12:13;16.90;71.90
65582;DHT22;52231;40.090;18.348;2022-09-20T21:14:41;16.80;72.10
65582;DHT22;52231;40.090;18.348;2022-09-20T21:17:11;16.80;72.10
65582;DHT22;52231;40.090;18.348;2022-09-20T21:19:40;16.80;72.10
65582;DHT22;52231;40.090;18.348;2022-09-20T21:22:08;16.80;72.10
65582;DHT22;52231;40.090;18.348;2022-09-20T21:24:37;16.80;72.00
65582;DHT22;52231;40.090;18.348;2022-09-20T21:27:05;16.70;72.00
65582;DHT22;52231;40.090;18.348;2022-09-20T21:29:33;16.70;72.10
65582;DHT22;52231;40.090;18.348;2022-09-20T21:32:01;16.70;72.20